Flight Track Log - Related Links

Times and Time Zones

All times are in EDT time to prevent confusion due to time zone crossing. See the NGF69C flight status page for this flight to view local times or setup timezone preferences in your user account.

Time Position Orientation Groundspeed Altitude Reporting Facility
EDT Latitude Longitude Course Direction KTS MPH feet Rate Location/Type
Tue 03:15:22 PM 41.5064 -81.7033 304° West 81 93 1,200  Level Cleveland Center
Tue 03:16:46 PM 41.5206 -81.7314 341° North 73 84 2,000 372 Climbing Cleveland Center
Tue 03:17:47 PM 41.5456 -81.7428 North 91 105 2,100 49 Climbing Cleveland Center
Tue 03:18:48 PM 41.5725 -81.7406 19° North 100 115 2,100 149 Level Cleveland Center
Tue 03:19:48 PM 41.6019 -81.7272 72° East 121 139 2,400 496 Climbing Cleveland Center
Tue 03:20:49 PM 41.6128 -81.6831 85° East 116 133 3,100 672 Climbing Cleveland Center
Tue 03:21:44 PM 41.6153 -81.6469 82° East 108 124 3,700 645 Climbing Cleveland Center
Tue 03:22:50 PM 41.6197 -81.6053 76° East 103 119 4,400 614 Climbing Cleveland Center
Tue 03:23:51 PM 41.6264 -81.5692 81° East 102 117 5,000 517 Climbing Cleveland Center
Tue 03:24:46 PM 41.6308 -81.5333 78° East 106 122 5,400 466 Climbing Cleveland Center
Tue 03:25:47 PM 41.6375 -81.4917 78° East 110 127 5,900 446 Climbing Cleveland Center
Tue 03:26:47 PM 41.6439 -81.4528 75° East 113 130 6,300 446 Climbing Cleveland Center
Tue 03:27:48 PM 41.6528 -81.4086 75° East 117 135 6,800 393 Climbing Cleveland Center
Tue 03:28:49 PM 41.6614 -81.3642 78° East 121 139 7,100 148 Climbing Cleveland Center
Tue 03:29:50 PM 41.6700 -81.3114 89° East 152 175 7,100 -5 Level Cleveland Center
Tue 03:47:00 PM 41.6844 -80.3050 97° East 155 178 7,000 -6 Descending Cleveland Center
Tue 03:48:00 PM 41.6803 -80.2606 88° East 155 178 7,000  Level Cleveland Center
Tue 03:49:00 PM 41.6822 -80.1967 93° East 155 178 7,000  Level Cleveland Center
Tue 03:50:00 PM 41.6797 -80.1356 90° East 155 178 7,000  Level Cleveland Center
Tue 03:51:00 PM 41.6794 -80.0744 87° East 155 178 7,000  Level Cleveland Center
Tue 03:52:00 PM 41.6814 -80.0272 93° East 155 178 7,000 50 Level Cleveland Center
Tue 03:53:00 PM 41.6789 -79.9578 93° East 155 178 7,100  Climbing Cleveland Center
Tue 03:54:00 PM 41.6764 -79.8964 90° East 155 178 7,000 -50 Descending Cleveland Center
Tue 03:55:00 PM 41.6761 -79.8408 90° East 155 178 7,000  Level Cleveland Center
Tue 03:56:00 PM 41.6758 -79.7825 94° East 155 178 7,000  Level Cleveland Center
Tue 03:57:00 PM 41.6733 -79.7297 88° East 155 178 7,000  Level Cleveland Center
Tue 03:58:00 PM 41.6750 -79.6686 88° East 249 287 7,000 50 Level Cleveland Center
Tue 03:59:00 PM 41.6767 -79.6156 94° East 191 220 7,100 50 Climbing Cleveland Center
Tue 04:00:00 PM 41.6739 -79.5575 88° East 167 192 7,100  Level Cleveland Center
Tue 04:01:00 PM 41.6756 -79.4961 94° East 155 178 7,100  Level Cleveland Center
Tue 04:02:00 PM 41.6728 -79.4406 91° East 155 178 7,100  Level Cleveland Center
Tue 04:03:00 PM 41.6722 -79.3822 91° East 155 178 7,100 50 Level Cleveland Center
Tue 04:04:00 PM 41.6717 -79.3267 88° East 155 178 7,200 -50 Climbing Cleveland Center
Tue 04:05:00 PM 41.6731 -79.2656 91° East 160 184 7,000 -50 Descending Cleveland Center
Tue 04:06:00 PM 41.6725 -79.2156 91° East 148 170 7,100 50 Climbing Cleveland Center
Tue 04:07:00 PM 41.6719 -79.1572 91° East 142 163 7,100  Level Cleveland Center
Tue 04:08:00 PM 41.6711 -79.0933 91° East 147 169 7,100 -50 Level Cleveland Center
Tue 04:09:00 PM 41.6703 -79.0347 88° East 156 180 7,000 -50 Descending Cleveland Center
Tue 04:10:00 PM 41.6717 -78.9819 91° East 156 180 7,000  Level Cleveland Center
Tue 04:11:00 PM 41.6706 -78.9181 97° East 156 180 7,000  Level Cleveland Center
Tue 04:12:00 PM 41.6658 -78.8681 91° East 156 180 7,000  Level Cleveland Center
Tue 04:13:00 PM 41.6650 -78.8153 88° East 156 180 7,000  Level Cleveland Center
Tue 04:14:00 PM 41.6661 -78.7597 94° East 150 173 7,000  Level Cleveland Center
Tue 04:15:00 PM 41.6633 -78.7069 92° East 145 167 7,000  Level Cleveland Center
Tue 04:16:00 PM 41.6622 -78.6514 91° East 145 167 7,000 200 Level Cleveland Center
Tue 04:17:00 PM 41.6614 -78.6014 91° East 140 161 7,400 400 Climbing Cleveland Center
Tue 04:18:00 PM 41.6608 -78.5597 91° East 130 150 7,800 450 Climbing Cleveland Center
Tue 04:19:00 PM 41.6600 -78.5153 87° East 119 137 8,300 350 Climbing Cleveland Center
Tue 04:20:00 PM 41.6614 -78.4764 95° East 119 137 8,500 300 Climbing Cleveland Center
Tue 04:21:00 PM 41.6583 -78.4319 88° East 119 137 8,900 300 Climbing Cleveland Center
Tue 04:22:00 PM 41.6597 -78.3847 92° East 119 137 9,100 100 Climbing Cleveland Center
Tue 04:23:00 PM 41.6586 -78.3375 94° East 124 143 9,100  Level Cleveland Center
Tue 04:24:00 PM 41.6556 -78.2792 92° East 136 157 9,100 -50 Level Cleveland Center
Tue 04:25:00 PM 41.6542 -78.2208 91° East 148 170 9,000 -50 Descending Cleveland Center
Tue 04:26:00 PM 41.6531 -78.1625 89° East 153 176 9,000  Level Cleveland Center
Tue 04:27:00 PM 41.6539 -78.1042 92° East 153 176 9,000 -44 Level Cleveland Center
Tue 04:28:16 PM 41.6519 -78.0256 91° East 160 184 8,900  Descending New York Center
Tue 04:29:17 PM 41.6514 -77.9669 93° East 160 184 9,000 50 Climbing New York Center
Tue 04:30:17 PM 41.6486 -77.9056 94° East 160 184 9,000  Level New York Center
Tue 04:31:16 PM 41.6458 -77.8469 88° East 160 184 9,000  Level New York Center
Tue 04:32:17 PM 41.6472 -77.7889 93° East 160 184 9,000  Level New York Center
Tue 04:33:17 PM 41.6447 -77.7247 91° East 160 184 9,000  Level New York Center
Tue 04:34:17 PM 41.6439 -77.6692 91° East 160 184 9,000  Level New York Center
Tue 04:35:16 PM 41.6433 -77.6081 94° East 160 184 9,000  Level New York Center
Tue 04:36:15 PM 41.6403 -77.5494 91° East 160 184 9,000  Level New York Center
Tue 04:37:16 PM 41.6397 -77.4883 92° East 160 184 9,000  Level New York Center
Tue 04:38:16 PM 41.6386 -77.4325 93° East 160 184 9,000  Level New York Center
Tue 04:39:17 PM 41.6358 -77.3711 91° East 160 184 9,000  Level New York Center
Tue 04:40:17 PM 41.6350 -77.3128 95° East 160 184 9,000 51 Level New York Center
Tue 04:41:15 PM 41.6317 -77.2569 94° East 160 184 9,100  Climbing New York Center
Tue 04:42:16 PM 41.6286 -77.1983 89° East 160 184 9,000 -49 Descending New York Center
Tue 04:43:17 PM 41.6297 -77.1403 92° East 160 184 9,000  Level New York Center
Tue 04:44:15 PM 41.6283 -77.0875 95° East 160 184 9,000 50 Level New York Center
Tue 04:45:16 PM 41.6250 -77.0344 89° East 155 178 9,100  Climbing New York Center
Tue 04:46:16 PM 41.6258 -76.9789 95° East 150 173 9,000 -50 Descending New York Center
Tue 04:47:16 PM 41.6222 -76.9258 91° East 145 167 9,000  Level New York Center
Tue 04:48:17 PM 41.6211 -76.8647 95° East 145 167 9,000  Level New York Center
Tue 04:49:15 PM 41.6178 -76.8089 91° East 145 167 9,000  Level New York Center
Tue 04:50:17 PM 41.6167 -76.7506 94° East 145 167 9,000  Level New York Center
Tue 04:51:17 PM 41.6133 -76.6919 93° East 145 167 9,000 51 Level New York Center
Tue 04:52:15 PM 41.6117 -76.6417 92° East 151 174 9,100  Climbing New York Center
Tue 04:53:15 PM 41.6100 -76.5889 91° East 151 174 9,000  Descending New York Center
Tue 04:54:16 PM 41.6089 -76.5278 92° East 146 168 9,100  Climbing New York Center
Tue 04:55:17 PM 41.6075 -76.4694 92° East 146 168 9,000 -50 Descending New York Center
Tue 04:56:17 PM 41.6058 -76.4167 93° East 146 168 9,000  Level New York Center
Tue 04:57:17 PM 41.6042 -76.3664 95° East 146 168 9,000 51 Level New York Center
Tue 04:58:15 PM 41.6006 -76.3078 92° East 146 168 9,100 50 Climbing New York Center
Tue 04:59:16 PM 41.5992 -76.2467 92° East 146 168 9,100  Level New York Center
Tue 05:00:16 PM 41.5975 -76.1939 92° East 146 168 9,100  Level New York Center
Tue 05:01:15 PM 41.5958 -76.1383 93° East 146 168 9,100  Level New York Center
Tue 05:02:15 PM 41.5939 -76.0911 94° East 141 162 9,100  Level New York Center
Tue 05:03:16 PM 41.5906 -76.0269 92° East 147 169 9,100  Level New York Center
Tue 05:04:17 PM 41.5889 -75.9686 92° East 147 169 9,100  Level New York Center
Tue 05:05:18 PM 41.5872 -75.9128 88° East 152 175 9,100  Level New York Center
Tue 05:17:37 PM 41.6056 -75.2192 88° East 157 181 9,100  Level Boston Center
Tue 05:18:37 PM 41.6069 -75.1639 88° East 152 175 9,100 -50 Level Boston Center
Tue 05:19:37 PM 41.6083 -75.1000 88° East 152 175 9,000  Descending Boston Center
Tue 05:20:37 PM 41.6097 -75.0472 85° East 152 175 9,100 50 Climbing Boston Center
Tue 05:21:37 PM 41.6131 -74.9919 91° East 152 175 9,100  Level Boston Center
Tue 05:22:37 PM 41.6122 -74.9308 88° East 152 175 9,100  Level Boston Center
Tue 05:23:37 PM 41.6133 -74.8781 85° East 152 175 9,100  Level Boston Center
Tue 05:24:37 PM 41.6167 -74.8228 91° East 147 169 9,100  Level Boston Center
Tue 05:25:37 PM 41.6158 -74.7669 88° East 147 169 9,100  Level Boston Center
Tue 05:26:37 PM 41.6169 -74.7117 88° East 147 169 9,100  Level Boston Center
Tue 05:27:37 PM 41.6181 -74.6561 88° East 147 169 9,100  Level Boston Center
Tue 05:28:37 PM 41.6192 -74.6006 89° East 147 169 9,100  Level Boston Center
Tue 05:29:37 PM 41.6200 -74.5450 88° East 142 163 9,100  Level Boston Center
Tue 05:30:37 PM 41.6211 -74.4894 86° East 142 163 9,100  Level Boston Center
Tue 05:31:37 PM 41.6242 -74.4342 92° East 142 163 9,100  Level Boston Center
Tue 05:32:37 PM 41.6231 -74.3786 89° East 142 163 9,100  Level Boston Center
Tue 05:33:37 PM 41.6242 -74.3203 89° East 148 170 9,100  Level Boston Center
Tue 05:34:37 PM 41.6250 -74.2647 89° East 148 170 9,100  Level Boston Center
Tue 05:35:37 PM 41.6258 -74.2064 89° East 148 170 9,100  Level Boston Center
Tue 05:36:37 PM 41.6267 -74.1536 89° East 148 170 9,100  Level Boston Center
Tue 05:37:37 PM 41.6275 -74.0953 89° East 148 170 9,100  Level Boston Center
Tue 05:38:37 PM 41.6283 -74.0453 89° East 143 165 9,100  Level Boston Center
Tue 05:39:37 PM 41.6292 -73.9842 89° East 143 165 9,100  Level Boston Center
Tue 05:40:37 PM 41.6297 -73.9342 89° East 143 165 9,100  Level Boston Center
Tue 05:41:37 PM 41.6306 -73.8733 89° East 143 165 9,100  Level Boston Center
Tue 05:42:37 PM 41.6311 -73.8233 89° East 148 170 9,100  Level Boston Center
Tue 05:43:37 PM 41.6319 -73.7622 86° East 148 170 9,100  Level Boston Center
Tue 05:44:37 PM 41.6347 -73.7094 92° East 143 165 9,100  Level Boston Center
Tue 05:45:37 PM 41.6333 -73.6511 86° East 143 165 9,100  Level Boston Center
Tue 05:46:37 PM 41.6358 -73.5983 92° East 143 165 9,100  Level Boston Center
Tue 05:47:37 PM 41.6344 -73.5400 90° East 143 165 9,100  Level Boston Center
Tue 05:48:37 PM 41.6347 -73.4872 89° East 143 165 9,100  Level Boston Center
Tue 05:49:15 PM 41.6353 -73.4483 92° East 150 173 9,100  Level Boston Center
Tue 05:50:28 PM 41.6336 -73.3817 89° East 148 170 9,100  Level Boston Center
Tue 05:51:29 PM 41.6342 -73.3233 89° East 148 170 9,100  Level Boston Center
Tue 05:52:29 PM 41.6347 -73.2678 87° East 147 169 9,100  Level Boston Center
Tue 05:53:30 PM 41.6369 -73.2150 98° East 145 167 9,100  Level Boston Center
Tue 05:54:37 PM 41.6311 -73.1622 103° East 143 165 9,100  Level Boston Center
Tue 05:55:31 PM 41.6211 -73.1064 97° East 149 171 9,100  Level Boston Center
Tue 05:56:37 PM 41.6153 -73.0453 102° East 143 165 9,100  Level Boston Center
Tue 05:57:37 PM 41.6072 -72.9925 99° East 143 165 9,100  Level Boston Center
Tue 05:58:37 PM 41.6011 -72.9397 101° East 143 165 9,100  Level Boston Center
Tue 05:59:37 PM 41.5931 -72.8842 101° East 143 165 9,100  Level Boston Center
Tue 06:00:37 PM 41.5847 -72.8286 95° East 143 165 9,100  Level Boston Center
Tue 06:01:37 PM 41.5808 -72.7731 101° East 143 165 9,100 -150 Level Boston Center
Tue 06:02:37 PM 41.5728 -72.7175 97° East 143 165 8,800 -500 Descending Boston Center
Tue 06:03:37 PM 41.5667 -72.6536 99° East 155 178 8,100 -729 Descending Boston Center
Tue 06:04:57 PM 41.5564 -72.5678 100° East 177 204 7,100 -449 Descending Boston Center
Tue 06:06:04 PM 41.5481 -72.5039 104° East 158 182 7,000  Descending Boston Center
Tue 06:07:05 PM 41.5375 -72.4483 98° East 150 173 7,100 50 Climbing Boston Center
Tue 06:08:05 PM 41.5314 -72.3931 108° East 152 175 7,100  Level Boston Center
Tue 06:09:06 PM 41.5189 -72.3403 128° Southeast 150 173 7,100 -198 Level Boston Center
Tue 06:10:06 PM 41.4917 -72.2933 164° South 166 191 6,700 -545 Descending Boston Center
Tue 06:11:07 PM 41.4478 -72.2767 155° Southeast 163 188 6,000 -787 Descending Boston Center
Tue 06:12:08 PM 41.4042 -72.2492 159° South 179 206 5,100 -893 Descending Boston Center
Tue 06:13:08 PM 41.3622 -72.2272 150° Southeast 163 188 4,200 -893 Descending Boston Center
Tue 06:14:09 PM 41.3186 -72.1942 143° Southeast 164 189 3,300 -590 Descending Boston Center
Tue 06:15:10 PM 41.2831 -72.1583 133° Southeast 157 181 3,000 -99 Descending Boston Center
Tue 06:16:10 PM 41.2578 -72.1225 133° Southeast 144 166 3,100 50 Climbing Boston Center
Tue 06:17:11 PM 41.2328 -72.0867 102° East 132 152 3,100 -298 Level Boston Center
Tue 06:18:11 PM 41.2242 -72.0344 63° Northeast 144 166 2,500 -496 Descending Boston Center
Tue 06:19:12 PM 41.2367 -72.0011 54° Northeast 109 125 2,100 -344 Descending Boston Center
Tue 06:20:13 PM 41.2533 -71.9708 45° Northeast 100 115 1,800 -248 Descending Boston Center
Tue 06:21:13 PM 41.2739 -71.9431 52° Northeast 103 119 1,600 -52 Descending Boston Center
Tue 06:22:08 PM 41.2883 -71.9181 60° Northeast 102 117 1,700 -52 Climbing Boston Center
Tue 06:23:08 PM 41.3028 -71.8847 51° Northeast 102 117 1,500 -397 Descending Boston Center
Tue 06:24:09 PM 41.3214 -71.8542 53° Northeast 105 121 900 -443 Descending Boston Center
Tue 06:25:10 PM 41.3339 -71.8319 19° North 87 100 600 -248 Descending Boston Center
Tue 06:26:10 PM 41.3525 -71.8233 19° North 82 94 400 -200 Descending Boston Center

Login

Don't have an account? Register now (free) for customized features, flight alerts, and more!